Time;durP1;ratioP1;P1;durP2;ratioP2;P2;SDS_P1;SDS_P2;PMS_P1;PMS_P2;Temp;Humidity;BMP_temperature;BMP_pressure;BME280_temperature;BME280_humidity;BME280_pressure;Samples;Min_cycle;Max_cycle;Signal;HPM_P1;HPM_P2
2022/07/03 00:00:32;;;;;;;2.40;1.70;;;20.90;86.10;;;;;;2077939;28;20476;-69
2022/07/03 00:01:33;;;;;;;3.45;1.70;;;20.90;86.20;;;;;;2078139;28;20049;-69
2022/07/03 00:02:34;;;;;;;2.17;1.77;;;20.80;85.80;;;;;;2072940;28;20029;-69
2022/07/03 00:03:34;;;;;;;3.08;1.40;;;20.80;86.30;;;;;;2076895;28;20460;-69
2022/07/03 00:04:35;;;;;;;2.95;1.50;;;20.80;85.20;;;;;;2076631;28;20079;-69
2022/07/03 00:05:36;;;;;;;2.08;1.40;;;20.80;87.10;;;;;;2074605;28;20439;-69
2022/07/03 00:06:36;;;;;;;1.45;1.35;;;20.80;88.10;;;;;;2079007;28;20033;-69
2022/07/03 00:07:40;;;;;;;1.80;1.48;;;20.80;87.10;;;;;;2078524;28;20052;-69
2022/07/03 00:08:41;;;;;;;3.33;1.55;;;20.80;87.40;;;;;;2077935;28;20029;-69
2022/07/03 00:09:42;;;;;;;1.67;1.50;;;20.80;87.30;;;;;;2078957;28;20025;-69
2022/07/03 00:10:43;;;;;;;2.17;1.45;;;20.70;88.20;;;;;;2077610;28;20052;-69
2022/07/03 00:11:44;;;;;;;2.25;1.45;;;20.70;88.40;;;;;;2077900;28;20033;-69
2022/07/03 00:12:44;;;;;;;2.15;1.50;;;20.70;87.40;;;;;;2077144;28;20496;-69
2022/07/03 00:13:45;;;;;;;2.22;1.60;;;20.70;88.30;;;;;;2077494;28;20022;-69
2022/07/03 00:14:45;;;;;;;2.22;1.48;;;20.70;88.70;;;;;;2074567;28;20040;-69
2022/07/03 00:15:46;;;;;;;2.35;1.45;;;20.70;87.60;;;;;;2076214;28;20033;-69
2022/07/03 00:16:47;;;;;;;1.90;1.30;;;20.60;89.10;;;;;;2077357;28;20149;-69
2022/07/03 00:17:48;;;;;;;3.30;1.50;;;20.60;89.20;;;;;;2078193;28;20076;-69
2022/07/03 00:18:49;;;;;;;2.92;1.73;;;20.60;89.50;;;;;;2077406;28;20374;-69
2022/07/03 00:19:49;;;;;;;4.32;1.60;;;20.60;90.10;;;;;;2077669;28;20135;-69
2022/07/03 00:20:59;;;;;;;3.40;1.85;;;20.50;89.80;;;;;;2078837;28;20481;-69
2022/07/03 00:22:05;;;;;;;2.13;1.50;;;20.60;90.30;;;;;;2076278;28;20049;-69
2022/07/03 00:23:09;;;;;;;1.60;1.42;;;20.50;89.30;;;;;;2076864;28;20025;-69
2022/07/03 00:24:28;;;;;;;1.63;1.48;;;20.50;90.40;;;;;;2078508;28;20354;-69
2022/07/03 00:25:29;;;;;;;2.42;1.60;;;20.50;90.70;;;;;;2073290;28;20121;-69
2022/07/03 00:26:34;;;;;;;3.60;1.75;;;20.40;90.30;;;;;;2078201;28;20026;-69
2022/07/03 00:27:35;;;;;;;1.67;1.35;;;20.40;90.80;;;;;;2076000;28;20029;-69
2022/07/03 00:28:36;;;;;;;5.28;1.50;;;20.40;90.10;;;;;;2076673;28;20572;-69
2022/07/03 00:29:40;;;;;;;2.65;1.60;;;20.30;90.40;;;;;;2076528;28;20033;-69
2022/07/03 00:30:45;;;;;;;3.42;1.60;;;20.40;91.00;;;;;;2075229;28;20046;-69
2022/07/03 00:31:47;;;;;;;3.45;1.80;;;20.30;91.70;;;;;;2076131;28;20029;-69
2022/07/03 00:32:48;;;;;;;2.75;1.50;;;20.30;91.40;;;;;;2076992;28;20037;-69
2022/07/03 00:33:51;;;;;;;4.07;1.83;;;20.20;91.90;;;;;;2074511;28;20049;-69
2022/07/03 00:34:54;;;;;;;4.10;1.85;;;20.20;92.20;;;;;;2074310;28;20141;-69
2022/07/03 00:35:55;;;;;;;5.03;1.60;;;20.20;92.20;;;;;;2075516;28;20032;-69
2022/07/03 00:36:57;;;;;;;2.65;1.40;;;20.20;92.60;;;;;;2073154;28;20394;-69
2022/07/03 00:37:58;;;;;;;1.58;1.30;;;20.20;92.90;;;;;;2077810;28;20017;-69
2022/07/03 00:38:59;;;;;;;1.98;1.25;;;20.20;93.20;;;;;;2080009;28;20033;-69
2022/07/03 00:40:00;;;;;;;2.45;1.60;;;20.10;92.70;;;;;;2068903;28;20026;-69
2022/07/03 00:41:03;;;;;;;2.05;1.15;;;20.10;92.90;;;;;;2068566;28;20510;-69
2022/07/03 00:42:06;;;;;;;1.63;1.30;;;20.10;92.00;;;;;;2078007;28;20038;-69
2022/07/03 00:43:09;;;;;;;1.52;1.25;;;20.10;91.90;;;;;;2076288;28;20033;-69
2022/07/03 00:44:09;;;;;;;3.95;1.80;;;20.10;91.90;;;;;;2076909;28;20017;-69
2022/07/03 00:45:13;;;;;;;5.13;1.40;;;20.10;93.10;;;;;;2074797;28;20109;-69
2022/07/03 00:46:17;;;;;;;3.85;1.73;;;20.10;93.90;;;;;;2077020;28;20047;-69
2022/07/03 00:47:20;;;;;;;1.45;1.10;;;20.10;93.50;;;;;;2075956;28;20032;-69
2022/07/03 00:48:21;;;;;;;1.95;1.33;;;20.00;92.50;;;;;;2075536;28;20062;-69
2022/07/03 00:49:25;;;;;;;2.03;1.40;;;20.00;93.50;;;;;;2077614;28;20037;-69
2022/07/03 00:50:35;;;;;;;2.17;1.30;;;20.00;93.90;;;;;;2076437;28;20103;-69
2022/07/03 00:51:40;;;;;;;3.53;1.73;;;20.00;94.00;;;;;;2077299;28;20679;-69
2022/07/03 00:52:47;;;;;;;2.70;1.58;;;20.00;94.50;;;;;;2075709;28;20014;-69
2022/07/03 00:53:55;;;;;;;2.35;1.30;;;20.00;94.20;;;;;;2076681;28;20103;-69
2022/07/03 00:54:58;;;;;;;1.85;1.33;;;20.00;94.90;;;;;;2077297;28;20033;-69
2022/07/03 00:56:00;;;;;;;1.80;1.33;;;20.00;95.20;;;;;;2074923;28;20022;-69
2022/07/03 00:57:03;;;;;;;3.67;1.50;;;20.00;95.00;;;;;;2078677;28;20075;-69
2022/07/03 00:58:05;;;;;;;3.33;1.48;;;20.00;96.20;;;;;;2076957;28;20031;-69
2022/07/03 00:59:05;;;;;;;4.97;1.40;;;20.00;96.50;;;;;;2073986;28;20580;-69
2022/07/03 01:00:07;;;;;;;2.05;1.52;;;20.00;95.50;;;;;;2076185;28;20437;-69
2022/07/03 01:01:10;;;;;;;2.20;1.27;;;20.00;95.60;;;;;;2074861;28;20104;-69
2022/07/03 01:02:24;;;;;;;2.22;1.40;;;19.90;95.80;;;;;;2074270;28;20022;-69
2022/07/03 01:03:27;;;;;;;2.47;1.58;;;19.90;96.80;;;;;;2076777;28;20022;-69
2022/07/03 01:04:33;;;;;;;1.55;1.35;;;19.90;96.20;;;;;;2075065;28;20029;-69
2022/07/03 01:05:42;;;;;;;3.08;1.55;;;19.90;96.40;;;;;;2074984;28;20112;-69
2022/07/03 01:07:07;;;;;;;1.67;1.50;;;19.90;96.90;;;;;;2066621;28;20041;-69
2022/07/03 01:08:26;;;;;;;1.85;1.52;;;19.90;98.60;;;;;;2072740;28;20018;-69
2022/07/03 01:09:53;;;;;;;3.03;1.60;;;19.90;98.60;;;;;;2074461;28;20071;-69
2022/07/03 01:11:08;;;;;;;1.92;1.65;;;19.80;97.50;;;;;;2074774;28;20433;-69
2022/07/03 01:12:26;;;;;;;3.38;1.52;;;19.80;98.00;;;;;;2074895;28;20034;-69
2022/07/03 01:14:05;;;;;;;1.30;1.20;;;19.80;97.50;;;;;;2075457;28;20109;-69
2022/07/03 01:15:14;;;;;;;4.05;1.42;;;19.80;98.10;;;;;;2076200;28;20033;-69
2022/07/03 01:16:20;;;;;;;2.42;1.60;;;19.80;97.20;;;;;;2076730;28;20075;-69
2022/07/03 01:17:33;;;;;;;1.83;1.33;;;19.80;96.90;;;;;;2076130;28;20029;-69
2022/07/03 01:19:08;;;;;;;1.60;1.45;;;19.80;98.50;;;;;;2075043;28;20022;-69
2022/07/03 01:20:10;;;;;;;1.35;1.10;;;19.80;99.20;;;;;;2076398;28;20022;-69
2022/07/03 01:21:28;;;;;;;2.78;1.50;;;19.70;99.10;;;;;;2076324;28;20072;-69
2022/07/03 01:22:35;;;;;;;1.48;1.35;;;19.70;98.60;;;;;;2075661;28;20434;-69
2022/07/03 01:23:58;;;;;;;2.60;1.65;;;19.70;98.50;;;;;;2076121;28;20026;-69
2022/07/03 01:25:18;;;;;;;4.07;1.67;;;19.70;99.30;;;;;;2076114;28;20036;-69
2022/07/03 01:26:19;;;;;;;4.25;1.63;;;19.70;99.40;;;;;;2076039;28;20067;-69
2022/07/03 01:27:33;;;;;;;3.95;1.77;;;19.70;98.90;;;;;;2075430;28;20021;-69
2022/07/03 01:28:38;;;;;;;1.80;1.27;;;19.70;99.20;;;;;;2077347;28;20041;-69
2022/07/03 01:29:56;;;;;;;1.60;1.50;;;19.70;99.50;;;;;;2074461;28;20097;-69
2022/07/03 01:31:01;;;;;;;2.40;1.42;;;19.60;99.70;;;;;;2072483;28;20100;-69
2022/07/03 01:32:03;;;;;;;2.40;1.55;;;19.60;98.70;;;;;;2077882;28;20056;-69
2022/07/03 01:33:16;;;;;;;2.75;1.40;;;19.60;99.50;;;;;;2075182;28;20033;-69
2022/07/03 01:34:19;;;;;;;2.17;1.45;;;19.60;99.60;;;;;;2077322;28;20025;-69
2022/07/03 01:35:28;;;;;;;1.77;1.25;;;19.60;98.30;;;;;;2077795;28;20389;-69
2022/07/03 01:36:31;;;;;;;3.28;1.70;;;19.60;98.60;;;;;;2077506;28;20374;-69
2022/07/03 01:37:35;;;;;;;2.30;1.33;;;19.50;99.10;;;;;;2076382;28;20501;-69
2022/07/03 01:38:37;;;;;;;2.78;1.50;;;19.50;99.20;;;;;;2077835;28;20013;-69
2022/07/03 01:39:42;;;;;;;2.45;1.55;;;19.50;99.10;;;;;;2078021;28;20124;-69
2022/07/03 01:40:43;;;;;;;2.20;1.45;;;19.50;99.50;;;;;;2076739;28;20033;-69
2022/07/03 01:41:47;;;;;;;2.40;1.77;;;19.50;98.40;;;;;;2077175;28;20030;-69
2022/07/03 01:42:49;;;;;;;2.92;1.92;;;19.50;99.20;;;;;;2077547;28;20112;-69
2022/07/03 01:43:55;;;;;;;3.97;1.92;;;19.50;99.40;;;;;;2078962;28;20025;-69
2022/07/03 01:44:58;;;;;;;2.15;1.50;;;19.50;99.90;;;;;;2079096;28;20436;-69
2022/07/03 01:46:01;;;;;;;3.05;1.70;;;19.50;99.10;;;;;;2074352;28;20072;-69
2022/07/03 01:47:02;;;;;;;2.15;1.40;;;19.50;99.50;;;;;;2075922;28;20400;-69
2022/07/03 01:48:05;;;;;;;2.13;1.60;;;19.40;99.90;;;;;;2075252;28;20029;-69
2022/07/03 01:49:07;;;;;;;1.65;1.45;;;19.40;99.70;;;;;;2076650;28;20033;-69
2022/07/03 01:50:13;;;;;;;2.90;1.52;;;19.40;98.90;;;;;;2079040;28;20124;-69
2022/07/03 01:51:15;;;;;;;3.50;1.80;;;19.40;98.80;;;;;;2077374;28;20034;-69
2022/07/03 01:52:17;;;;;;;1.55;1.38;;;19.40;99.70;;;;;;2076766;28;20120;-69
2022/07/03 01:53:19;;;;;;;1.90;1.63;;;19.40;99.70;;;;;;2077683;28;20105;-69
2022/07/03 01:54:23;;;;;;;4.15;1.85;;;19.40;99.90;;;;;;2076470;28;20044;-69
2022/07/03 01:55:26;;;;;;;2.92;1.70;;;19.40;99.30;;;;;;2078876;28;20052;-69
2022/07/03 01:56:32;;;;;;;3.13;1.60;;;19.30;99.90;;;;;;2076189;28;20026;-69
2022/07/03 01:57:51;;;;;;;1.90;1.70;;;19.30;99.70;;;;;;2075340;28;20026;-69
2022/07/03 01:58:52;;;;;;;5.03;1.70;;;19.30;99.90;;;;;;2077852;28;20021;-69
2022/07/03 01:59:53;;;;;;;4.93;2.08;;;19.20;99.60;;;;;;2076201;28;20498;-69
2022/07/03 02:01:22;;;;;;;2.90;1.80;;;19.20;99.90;;;;;;2078054;28;20064;-69
2022/07/03 02:02:29;;;;;;;3.03;2.15;;;19.20;99.90;;;;;;2077555;28;20091;-69
2022/07/03 02:03:32;;;;;;;1.55;1.45;;;19.20;99.90;;;;;;2079203;28;20109;-69
2022/07/03 02:04:49;;;;;;;1.52;1.40;;;19.20;99.90;;;;;;2077937;28;20036;-69
2022/07/03 02:05:59;;;;;;;5.30;1.60;;;19.20;99.90;;;;;;2077570;28;20101;-69
2022/07/03 02:07:03;;;;;;;2.80;1.38;;;19.10;99.90;;;;;;2076857;28;20955;-69
2022/07/03 02:08:27;;;;;;;2.28;1.80;;;19.10;99.90;;;;;;2080070;28;20033;-69
2022/07/03 02:09:48;;;;;;;2.55;1.33;;;19.10;99.90;;;;;;2079743;28;20381;-69
2022/07/03 02:11:15;;;;;;;1.88;1.70;;;19.10;99.90;;;;;;2076728;28;20410;-69
2022/07/03 02:12:18;;;;;;;3.97;1.95;;;19.10;99.90;;;;;;2077301;28;20018;-69
2022/07/03 02:13:23;;;;;;;2.47;1.52;;;19.00;99.90;;;;;;2077140;28;20045;-69
2022/07/03 02:14:27;;;;;;;1.50;1.40;;;19.00;99.90;;;;;;2079781;28;20029;-69
2022/07/03 02:15:33;;;;;;;6.03;2.00;;;19.00;99.90;;;;;;2078896;28;20033;-69
2022/07/03 02:17:20;;;;;;;2.53;1.90;;;19.00;99.90;;;;;;2078389;28;20036;-69
2022/07/03 02:18:35;;;;;;;1.95;1.67;;;19.00;99.90;;;;;;2054378;28;20029;-69
2022/07/03 02:20:14;;;;;;;2.22;1.77;;;19.00;99.90;;;;;;2076623;28;20125;-69
2022/07/03 02:21:19;;;;;;;2.85;1.80;;;18.90;99.90;;;;;;2077789;28;20575;-69
2022/07/03 02:22:30;;;;;;;3.05;1.92;;;18.90;99.90;;;;;;2078595;28;20029;-69
2022/07/03 02:23:35;;;;;;;4.57;2.10;;;18.90;99.90;;;;;;2076985;28;20018;-69
2022/07/03 02:24:46;;;;;;;3.42;1.92;;;18.90;99.90;;;;;;2077263;28;20129;-69
2022/07/03 02:25:51;;;;;;;3.05;1.80;;;18.90;99.90;;;;;;2077678;28;20021;-69
2022/07/03 02:27:05;;;;;;;2.47;1.83;;;18.90;99.90;;;;;;2075923;28;20034;-69
2022/07/03 02:28:17;;;;;;;1.58;1.23;;;18.90;99.90;;;;;;2079345;28;20022;-69
2022/07/03 02:29:20;;;;;;;2.92;1.65;;;18.90;99.90;;;;;;2076424;28;20033;-69
2022/07/03 02:30:27;;;;;;;2.55;1.33;;;18.90;99.90;;;;;;2079103;28;20056;-69
2022/07/03 02:31:32;;;;;;;3.33;1.63;;;18.90;99.90;;;;;;2078660;28;20030;-69
2022/07/03 02:32:38;;;;;;;3.42;1.60;;;18.90;99.90;;;;;;2077534;28;20021;-69
2022/07/03 02:33:43;;;;;;;2.60;1.52;;;18.90;99.90;;;;;;2078450;28;20072;-69
2022/07/03 02:34:47;;;;;;;4.07;1.63;;;18.90;99.90;;;;;;2076953;28;20036;-69
2022/07/03 02:35:50;;;;;;;2.03;1.63;;;18.90;99.90;;;;;;2074848;28;20111;-69
2022/07/03 02:36:55;;;;;;;1.63;1.20;;;18.90;99.90;;;;;;2078873;28;20060;-69
2022/07/03 02:38:19;;;;;;;4.05;1.30;;;18.90;99.90;;;;;;2077462;28;20031;-69
2022/07/03 02:39:45;;;;;;;3.55;1.80;;;18.90;99.90;;;;;;2077032;28;20038;-69
2022/07/03 02:41:11;;;;;;;3.40;2.03;;;18.90;99.90;;;;;;2076173;28;20028;-69
2022/07/03 02:42:36;;;;;;;2.28;1.58;;;18.90;99.90;;;;;;2078057;28;20149;-69
2022/07/03 02:43:57;;;;;;;2.30;1.40;;;18.80;99.90;;;;;;2074695;28;20029;-68
2022/07/03 02:45:03;;;;;;;2.60;1.77;;;18.80;99.90;;;;;;2077446;28;20541;-69
2022/07/03 02:46:49;;;;;;;7.22;1.65;;;18.80;99.90;;;;;;2076465;28;20037;-69
2022/07/03 02:47:59;;;;;;;2.42;1.50;;;18.80;99.90;;;;;;2079019;28;20396;-69
2022/07/03 02:49:09;;;;;;;;;;;18.80;99.90;;;;;;2076685;28;20401;-69
2022/07/03 02:50:20;;;;;;;3.45;1.50;;;18.70;99.90;;;;;;2074492;28;19905;-69
2022/07/03 02:51:23;;;;;;;;;;;18.70;99.90;;;;;;2077509;28;20029;-69
2022/07/03 02:52:30;;;;;;;2.50;1.63;;;18.60;99.90;;;;;;2075838;28;19949;-69
2022/07/03 02:53:52;;;;;;;2.20;1.50;;;18.70;99.90;;;;;;2075878;28;20497;-69
2022/07/03 02:54:57;;;;;;;2.72;1.80;;;18.70;99.90;;;;;;2074709;28;20425;-69
2022/07/03 02:56:27;;;;;;;2.08;1.45;;;18.70;99.90;;;;;;2077155;28;20014;-69
2022/07/03 02:57:40;;;;;;;3.33;1.67;;;18.70;99.90;;;;;;2078346;28;20116;-69
2022/07/03 02:58:46;;;;;;;3.05;1.63;;;18.70;99.90;;;;;;2076941;28;20025;-69
2022/07/03 03:00:00;;;;;;;3.13;1.50;;;18.70;99.90;;;;;;2076752;28;20052;-69
2022/07/03 03:01:08;;;;;;;6.15;1.80;;;18.70;99.90;;;;;;2077198;28;20873;-69
2022/07/03 03:02:31;;;;;;;3.30;2.00;;;18.70;99.90;;;;;;2077891;28;20021;-69
2022/07/03 03:03:32;;;;;;;5.18;1.65;;;18.70;99.90;;;;;;2077557;28;20026;-69
2022/07/03 03:04:34;;;;;;;3.67;1.90;;;18.60;99.90;;;;;;2074460;28;20022;-69
2022/07/03 03:05:45;;;;;;;2.08;1.75;;;18.60;99.90;;;;;;2076963;28;20029;-69
2022/07/03 03:06:55;;;;;;;3.67;1.60;;;18.60;99.90;;;;;;2074534;28;20470;-69
2022/07/03 03:08:25;;;;;;;2.38;1.88;;;18.60;99.90;;;;;;2076062;28;20117;-69
2022/07/03 03:09:47;;;;;;;2.67;1.63;;;18.60;99.90;;;;;;2069831;28;20383;-69
2022/07/03 03:10:49;;;;;;;2.53;1.83;;;18.60;99.90;;;;;;2079165;28;20037;-69
2022/07/03 03:11:50;;;;;;;2.28;1.70;;;18.60;99.90;;;;;;2075881;28;20034;-69
2022/07/03 03:13:06;;;;;;;3.20;1.80;;;18.60;99.90;;;;;;2076364;28;20025;-69
2022/07/03 03:14:11;;;;;;;2.17;1.60;;;18.60;99.90;;;;;;2076875;28;20083;-69
2022/07/03 03:15:13;;;;;;;5.18;1.67;;;18.60;99.90;;;;;;2076058;28;20702;-69
2022/07/03 03:16:15;;;;;;;2.92;1.73;;;18.60;99.90;;;;;;2075990;28;20030;-69
2022/07/03 03:17:23;;;;;;;3.50;2.00;;;18.50;99.90;;;;;;2077234;28;20022;-69
2022/07/03 03:18:28;;;;;;;3.20;1.58;;;18.60;99.90;;;;;;2077647;28;20029;-69
2022/07/03 03:19:29;;;;;;;4.03;1.75;;;18.50;99.90;;;;;;2077547;28;20041;-69
2022/07/03 03:20:33;;;;;;;2.53;2.03;;;18.60;99.90;;;;;;2076818;28;20025;-69
2022/07/03 03:21:41;;;;;;;2.92;1.85;;;18.50;99.90;;;;;;2076268;28;20025;-69
2022/07/03 03:22:57;;;;;;;5.30;2.22;;;18.60;99.90;;;;;;2076258;28;20062;-69
2022/07/03 03:23:59;;;;;;;4.93;1.92;;;18.50;99.90;;;;;;2078283;28;20501;-69
2022/07/03 03:25:03;;;;;;;5.15;2.42;;;18.50;99.90;;;;;;2076921;28;20040;-69
2022/07/03 03:26:04;;;;;;;3.03;1.90;;;18.50;99.90;;;;;;2078096;28;20508;-69
2022/07/03 03:27:05;;;;;;;5.40;2.20;;;18.50;99.90;;;;;;2076370;28;20393;-69
2022/07/03 03:28:06;;;;;;;2.92;2.00;;;18.50;99.90;;;;;;2077201;28;20025;-69
2022/07/03 03:29:07;;;;;;;3.22;1.85;;;18.50;99.90;;;;;;2076826;28;20025;-69
2022/07/03 03:30:08;;;;;;;3.53;2.22;;;18.50;99.90;;;;;;2076666;28;20033;-69
2022/07/03 03:31:09;;;;;;;3.10;2.10;;;18.50;99.90;;;;;;2076502;28;20027;-69
2022/07/03 03:32:11;;;;;;;3.65;2.15;;;18.40;99.90;;;;;;2077014;28;20415;-69
2022/07/03 03:33:13;;;;;;;3.35;2.35;;;18.40;99.90;;;;;;2077373;28;20029;-69
2022/07/03 03:34:15;;;;;;;2.58;2.20;;;18.40;99.90;;;;;;2075880;28;20033;-69
2022/07/03 03:35:16;;;;;;;4.05;1.88;;;18.40;99.90;;;;;;2074781;28;20034;-69
2022/07/03 03:36:20;;;;;;;4.10;1.70;;;18.40;99.90;;;;;;2076772;28;20029;-69
2022/07/03 03:37:21;;;;;;;2.50;1.70;;;18.40;99.90;;;;;;2073651;28;20020;-69
2022/07/03 03:38:22;;;;;;;3.40;2.20;;;18.40;99.90;;;;;;2075979;28;20029;-69
2022/07/03 03:39:24;;;;;;;4.05;2.20;;;18.40;99.90;;;;;;2073253;28;20101;-69
2022/07/03 03:40:24;;;;;;;4.88;2.60;;;18.40;99.90;;;;;;2074210;28;20711;-69
2022/07/03 03:41:26;;;;;;;4.22;2.00;;;18.40;99.90;;;;;;2078260;28;20373;-69
2022/07/03 03:42:26;;;;;;;2.40;2.20;;;18.40;99.90;;;;;;2077613;28;20050;-69
2022/07/03 03:43:27;;;;;;;3.45;2.58;;;18.40;99.90;;;;;;2075021;28;20024;-69
2022/07/03 03:44:28;;;;;;;3.88;2.33;;;18.40;99.90;;;;;;2076574;28;20032;-69
2022/07/03 03:45:29;;;;;;;3.50;2.30;;;18.30;99.90;;;;;;2075220;28;21208;-69
2022/07/03 03:46:29;;;;;;;4.80;2.08;;;18.40;99.90;;;;;;2075810;28;20036;-69
2022/07/03 03:47:30;;;;;;;4.15;2.17;;;18.40;99.90;;;;;;2074797;28;20036;-69
2022/07/03 03:48:32;;;;;;;4.60;2.90;;;18.30;99.90;;;;;;2078901;28;20038;-69
2022/07/03 03:49:33;;;;;;;2.38;1.98;;;18.30;99.90;;;;;;2078207;28;20083;-69
2022/07/03 03:50:34;;;;;;;3.80;2.20;;;18.30;99.90;;;;;;2079148;28;20017;-69
2022/07/03 03:51:35;;;;;;;3.45;2.10;;;18.30;99.90;;;;;;2079279;28;20025;-69
2022/07/03 03:52:36;;;;;;;2.58;1.95;;;18.30;99.90;;;;;;2078518;28;20040;-69
2022/07/03 03:53:36;;;;;;;3.38;2.03;;;18.30;99.90;;;;;;2076440;28;20029;-69
2022/07/03 03:54:37;;;;;;;4.28;2.20;;;18.30;99.90;;;;;;2076365;28;20045;-69
2022/07/03 03:55:51;;;;;;;3.45;2.13;;;18.30;99.90;;;;;;2076959;28;20093;-69
2022/07/03 03:56:52;;;;;;;4.28;2.25;;;18.30;99.90;;;;;;2077794;28;20029;-69
2022/07/03 03:57:52;;;;;;;4.72;2.15;;;18.30;99.90;;;;;;2076674;28;20021;-69
2022/07/03 03:58:53;;;;;;;2.25;1.90;;;18.30;99.90;;;;;;2076905;28;20477;-69
2022/07/03 03:59:56;;;;;;;5.40;2.40;;;18.30;99.90;;;;;;2075595;28;20148;-69
2022/07/03 04:00:57;;;;;;;4.75;3.03;;;18.40;99.90;;;;;;2075073;28;20029;-69
2022/07/03 04:01:58;;;;;;;4.68;2.33;;;18.40;99.90;;;;;;2076725;28;20022;-69
2022/07/03 04:02:59;;;;;;;2.03;1.83;;;18.40;99.90;;;;;;2077075;28;20104;-69
2022/07/03 04:03:59;;;;;;;3.60;2.33;;;18.50;99.90;;;;;;2078130;28;20037;-69
2022/07/03 04:05:00;;;;;;;4.50;2.40;;;18.60;99.90;;;;;;2077929;28;20032;-69
2022/07/03 04:06:01;;;;;;;4.55;2.33;;;18.70;99.90;;;;;;2077778;28;20049;-69
2022/07/03 04:07:02;;;;;;;5.05;2.40;;;18.80;99.90;;;;;;2078641;28;20447;-69
2022/07/03 04:08:03;;;;;;;2.65;2.10;;;18.90;99.90;;;;;;2077592;28;20104;-69
2022/07/03 04:09:03;;;;;;;2.60;2.03;;;19.00;99.90;;;;;;2077863;28;20029;-68
2022/07/03 04:10:04;;;;;;;6.57;2.47;;;19.00;99.90;;;;;;2075724;28;20041;-69
2022/07/03 04:11:05;;;;;;;3.38;2.53;;;19.10;99.90;;;;;;2074980;28;20021;-69
2022/07/03 04:12:06;;;;;;;3.97;2.38;;;19.20;99.90;;;;;;2075454;28;20036;-69
2022/07/03 04:13:06;;;;;;;3.05;2.42;;;19.20;99.90;;;;;;2077820;28;20029;-69
2022/07/03 04:14:07;;;;;;;2.75;2.08;;;19.20;99.90;;;;;;2077604;28;20033;-69
2022/07/03 04:15:08;;;;;;;4.80;2.60;;;19.20;99.90;;;;;;2076643;28;20025;-69
2022/07/03 04:16:08;;;;;;;5.88;2.55;;;19.20;99.90;;;;;;2074970;28;20021;-69
2022/07/03 04:17:09;;;;;;;4.22;2.10;;;19.20;99.90;;;;;;2077018;28;20021;-69
2022/07/03 04:18:09;;;;;;;3.67;2.05;;;19.20;99.90;;;;;;2076478;28;20037;-69
2022/07/03 04:19:10;;;;;;;3.60;2.22;;;19.10;99.90;;;;;;2076138;28;20116;-69
2022/07/03 04:20:11;;;;;;;3.08;2.25;;;19.10;99.90;;;;;;2077497;28;20014;-69
2022/07/03 04:21:12;;;;;;;1.73;1.63;;;19.10;99.90;;;;;;2079761;28;20033;-69
2022/07/03 04:22:12;;;;;;;2.83;2.10;;;19.10;99.90;;;;;;2076873;28;20429;-69
2022/07/03 04:23:13;;;;;;;2.30;2.08;;;19.10;99.90;;;;;;2077896;28;20477;-69
2022/07/03 04:24:13;;;;;;;3.28;2.33;;;19.10;99.90;;;;;;2077858;28;20025;-69
2022/07/03 04:25:14;;;;;;;2.50;2.30;;;19.10;99.90;;;;;;2071829;28;20100;-69
2022/07/03 04:26:14;;;;;;;3.45;2.22;;;19.10;99.90;;;;;;2072239;28;20061;-69
2022/07/03 04:27:15;;;;;;;4.18;1.73;;;19.10;99.90;;;;;;2075153;28;20477;-69
2022/07/03 04:28:16;;;;;;;4.38;1.80;;;19.10;99.90;;;;;;2075615;28;20052;-69
2022/07/03 04:29:17;;;;;;;3.47;2.25;;;19.20;99.90;;;;;;2075563;28;20108;-69
2022/07/03 04:30:17;;;;;;;2.53;2.28;;;19.20;99.90;;;;;;2076413;28;20022;-69
2022/07/03 04:31:18;;;;;;;2.92;2.53;;;19.40;99.90;;;;;;2077847;28;20052;-69
2022/07/03 04:32:18;;;;;;;2.65;2.08;;;19.40;99.90;;;;;;2074622;28;20028;-69
2022/07/03 04:33:19;;;;;;;5.35;2.65;;;19.60;99.90;;;;;;2077123;28;20108;-69
2022/07/03 04:34:19;;;;;;;3.45;2.70;;;19.60;99.90;;;;;;2075218;28;20053;-69
2022/07/03 04:35:20;;;;;;;3.58;2.70;;;19.70;99.90;;;;;;2074139;28;20026;-69
2022/07/03 04:36:21;;;;;;;3.75;2.70;;;19.70;99.90;;;;;;2077074;28;20030;-69
2022/07/03 04:37:21;;;;;;;4.10;2.33;;;19.80;99.90;;;;;;2077249;28;20046;-69
2022/07/03 04:38:22;;;;;;;6.28;2.33;;;19.80;99.90;;;;;;2077136;28;20084;-69
2022/07/03 04:39:22;;;;;;;3.50;2.55;;;19.90;99.90;;;;;;2078174;28;20029;-69
2022/07/03 04:40:23;;;;;;;4.18;2.80;;;20.00;99.90;;;;;;2074940;28;20022;-69
2022/07/03 04:41:24;;;;;;;2.67;2.42;;;20.00;99.90;;;;;;2076593;28;20022;-69
2022/07/03 04:42:24;;;;;;;4.35;2.42;;;20.10;99.90;;;;;;2074748;28;20490;-69
2022/07/03 04:43:25;;;;;;;2.75;1.95;;;20.20;99.90;;;;;;2075093;28;20024;-69
2022/07/03 04:44:26;;;;;;;3.72;2.38;;;20.20;99.90;;;;;;2076716;28;20075;-69
2022/07/03 04:45:26;;;;;;;5.38;2.25;;;20.30;99.90;;;;;;2073120;28;20026;-69
2022/07/03 04:46:27;;;;;;;2.08;1.88;;;20.40;99.90;;;;;;2077223;28;20021;-69
2022/07/03 04:47:27;;;;;;;1.92;1.63;;;20.40;99.90;;;;;;2077266;28;20018;-69
2022/07/03 04:48:29;;;;;;;4.38;1.90;;;20.50;99.90;;;;;;2075005;28;20026;-69
2022/07/03 04:49:30;;;;;;;2.75;2.28;;;20.60;99.90;;;;;;2076441;28;20037;-69
2022/07/03 04:50:30;;;;;;;2.90;1.90;;;20.70;99.90;;;;;;2077818;28;20026;-69
2022/07/03 04:51:31;;;;;;;3.67;1.90;;;20.70;99.90;;;;;;2076433;28;20033;-69
2022/07/03 04:52:32;;;;;;;3.20;1.83;;;20.80;99.90;;;;;;2077407;28;20033;-69
2022/07/03 04:53:32;;;;;;;7.85;2.05;;;20.80;99.90;;;;;;2077023;28;20116;-69
2022/07/03 04:54:33;;;;;;;4.80;2.22;;;20.90;99.90;;;;;;2078689;28;20029;-69
2022/07/03 04:55:34;;;;;;;4.50;2.10;;;20.90;99.90;;;;;;2076295;28;20092;-69
2022/07/03 04:56:35;;;;;;;2.65;1.85;;;21.00;99.90;;;;;;2075455;28;20064;-69
2022/07/03 04:57:36;;;;;;;3.80;2.00;;;21.00;99.90;;;;;;2077279;28;20032;-69
2022/07/03 04:58:36;;;;;;;4.93;2.38;;;21.10;99.90;;;;;;2074286;28;20485;-69
2022/07/03 04:59:37;;;;;;;4.03;1.85;;;21.10;99.90;;;;;;2075443;28;20548;-69
2022/07/03 05:00:40;;;;;;;2.90;2.10;;;21.20;99.90;;;;;;2077007;28;20030;-69
2022/07/03 05:01:41;;;;;;;1.92;1.70;;;21.20;99.90;;;;;;2075802;28;20045;-69
2022/07/03 05:02:41;;;;;;;3.85;2.20;;;21.20;99.90;;;;;;2077069;28;20042;-69
2022/07/03 05:03:42;;;;;;;3.50;1.90;;;21.30;99.90;;;;;;2076750;28;20401;-69
2022/07/03 05:04:42;;;;;;;2.13;1.73;;;21.30;99.90;;;;;;2076420;28;20042;-69
2022/07/03 05:05:43;;;;;;;3.42;1.70;;;21.40;99.90;;;;;;2076826;28;20687;-69
2022/07/03 05:06:44;;;;;;;3.15;2.13;;;21.40;99.90;;;;;;2076000;28;20112;-69
2022/07/03 05:07:45;;;;;;;4.78;2.33;;;21.40;99.90;;;;;;2075881;28;20490;-69
2022/07/03 05:08:45;;;;;;;3.60;1.73;;;21.50;99.90;;;;;;2078917;28;20417;-69
2022/07/03 05:09:46;;;;;;;3.97;2.10;;;21.60;99.90;;;;;;2078711;28;20133;-69
2022/07/03 05:10:47;;;;;;;2.83;1.60;;;21.70;99.90;;;;;;2079584;28;20045;-69
2022/07/03 05:11:47;;;;;;;4.97;2.30;;;21.80;99.90;;;;;;2079997;28;20397;-69
2022/07/03 05:12:48;;;;;;;3.33;1.90;;;21.90;99.90;;;;;;2077219;28;20025;-69
2022/07/03 05:13:49;;;;;;;3.25;2.20;;;22.00;99.90;;;;;;2075227;28;20052;-69
2022/07/03 05:14:49;;;;;;;4.40;2.10;;;22.10;99.90;;;;;;2073931;28;20121;-69
2022/07/03 05:15:50;;;;;;;4.07;1.85;;;22.20;99.90;;;;;;2075793;28;20289;-69
2022/07/03 05:16:50;;;;;;;4.57;1.77;;;22.40;99.90;;;;;;2076900;28;20071;-69
2022/07/03 05:17:51;;;;;;;2.60;1.80;;;22.50;99.90;;;;;;2080050;28;20030;-69
2022/07/03 05:18:52;;;;;;;3.92;1.80;;;22.60;99.90;;;;;;2079156;28;20485;-69
2022/07/03 05:20:23;;;;;;;2.50;1.85;;;22.70;99.90;;;;;;2077820;28;20037;-69
2022/07/03 05:21:13;;;;;;;3.10;1.98;;;22.80;99.30;;;;;;2077168;28;20518;-69
2022/07/03 05:22:13;;;;;;;2.50;1.80;;;22.90;99.90;;;;;;2077748;28;20517;-69
2022/07/03 05:23:14;;;;;;;2.80;1.63;;;23.00;99.70;;;;;;2079025;28;20045;-69
2022/07/03 05:24:15;;;;;;;1.83;1.60;;;23.10;99.60;;;;;;2079138;28;20064;-69
2022/07/03 05:25:15;;;;;;;1.60;1.42;;;23.20;98.20;;;;;;2077850;28;20025;-69
2022/07/03 05:26:16;;;;;;;3.33;1.92;;;23.30;98.50;;;;;;2081458;28;20028;-69
2022/07/03 05:27:17;;;;;;;3.35;1.80;;;23.50;97.90;;;;;;2079525;28;20025;-69
2022/07/03 05:28:17;;;;;;;2.40;1.50;;;23.60;97.10;;;;;;2079759;28;20053;-69
2022/07/03 05:29:18;;;;;;;1.88;1.48;;;23.70;95.50;;;;;;2077120;28;20101;-69
2022/07/03 05:30:20;;;;;;;3.53;2.10;;;23.70;95.10;;;;;;2076198;28;20421;-70
2022/07/03 05:31:20;;;;;;;4.15;1.50;;;23.80;94.60;;;;;;2075409;28;20036;-70
2022/07/03 05:32:21;;;;;;;3.50;2.05;;;23.90;93.50;;;;;;2077151;28;20036;-69
2022/07/03 05:33:21;;;;;;;2.03;1.83;;;23.90;92.00;;;;;;2076159;28;20456;-69
2022/07/03 05:34:22;;;;;;;3.47;2.20;;;23.90;90.30;;;;;;2076826;28;20026;-69
2022/07/03 05:35:23;;;;;;;3.03;1.95;;;23.90;89.30;;;;;;2075543;28;20393;-70
2022/07/03 05:36:24;;;;;;;4.55;2.13;;;23.90;88.60;;;;;;2078084;28;20539;-70
2022/07/03 05:37:24;;;;;;;5.88;2.53;;;23.90;87.00;;;;;;2078252;28;20021;-69
2022/07/03 05:39:44;;;;;;;2.10;1.88;;;23.90;85.60;;;;;;2076570;28;20038;-69
2022/07/03 05:40:45;;;;;;;5.75;2.28;;;23.90;85.40;;;;;;2079495;28;20037;-69